sensor_id;sensor_type;location;lat;lon;timestamp;pressure;altitude;pressure_sealevel;temperature
65180;BMP280;51849;47.476;8.084;2022-10-28T00:00:05;97362.16;;;12.22
65180;BMP280;51849;47.476;8.084;2022-10-28T00:02:31;97364.53;;;12.20
65180;BMP280;51849;47.476;8.084;2022-10-28T00:04:57;97370.47;;;12.20
65180;BMP280;51849;47.476;8.084;2022-10-28T00:07:22;97367.69;;;12.24
65180;BMP280;51849;47.476;8.084;2022-10-28T00:09:48;97370.03;;;12.22
65180;BMP280;51849;47.476;8.084;2022-10-28T00:12:14;97368.84;;;12.23
65180;BMP280;51849;47.476;8.084;2022-10-28T00:14:40;97367.69;;;12.24
65180;BMP280;51849;47.476;8.084;2022-10-28T00:17:06;97374.59;;;12.27
65180;BMP280;51849;47.476;8.084;2022-10-28T00:19:32;97371.28;;;12.27
65180;BMP280;51849;47.476;8.084;2022-10-28T00:21:57;97368.22;;;12.28
65180;BMP280;51849;47.476;8.084;2022-10-28T00:24:23;97367.03;;;12.29
65180;BMP280;51849;47.476;8.084;2022-10-28T00:26:49;97367.22;;;12.26
65180;BMP280;51849;47.476;8.084;2022-10-28T00:29:17;97370.81;;;12.28
65180;BMP280;51849;47.476;8.084;2022-10-28T00:31:44;97373.44;;;12.28
65180;BMP280;51849;47.476;8.084;2022-10-28T00:34:15;97369.56;;;12.23
65180;BMP280;51849;47.476;8.084;2022-10-28T00:36:43;97370.03;;;12.22
65180;BMP280;51849;47.476;8.084;2022-10-28T00:39:15;97366.75;;;12.27
65180;BMP280;51849;47.476;8.084;2022-10-28T00:41:44;97363.09;;;12.19
65180;BMP280;51849;47.476;8.084;2022-10-28T00:47:05;97369.22;;;12.16
65180;BMP280;51849;47.476;8.084;2022-10-28T00:49:34;97363.47;;;12.12
65180;BMP280;51849;47.476;8.084;2022-10-28T00:52:05;97368.69;;;12.12
65180;BMP280;51849;47.476;8.084;2022-10-28T00:54:33;97362.22;;;12.07
65180;BMP280;51849;47.476;8.084;2022-10-28T00:57:02;97364.38;;;12.09
65180;BMP280;51849;47.476;8.084;2022-10-28T00:59:33;97366.75;;;12.07
65180;BMP280;51849;47.476;8.084;2022-10-28T01:02:00;97358.34;;;12.03
65180;BMP280;51849;47.476;8.084;2022-10-28T01:04:29;97358.81;;;12.01
65180;BMP280;51849;47.476;8.084;2022-10-28T01:06:56;97351.97;;;12.04
65180;BMP280;51849;47.476;8.084;2022-10-28T01:09:23;97350.00;;;11.99
65180;BMP280;51849;47.476;8.084;2022-10-28T01:15:09;97346.22;;;12.00
65180;BMP280;51849;47.476;8.084;2022-10-28T01:18:17;97354.69;;;11.95
65180;BMP280;51849;47.476;8.084;2022-10-28T01:24:25;97362.53;;;11.95
65180;BMP280;51849;47.476;8.084;2022-10-28T01:31:53;97355.41;;;11.81
65180;BMP280;51849;47.476;8.084;2022-10-28T01:37:46;97360.13;;;11.77
65180;BMP280;51849;47.476;8.084;2022-10-28T01:40:28;97357.06;;;11.78
65180;BMP280;51849;47.476;8.084;2022-10-28T01:43:08;97354.63;;;11.75
65180;BMP280;51849;47.476;8.084;2022-10-28T01:45:44;97352.94;;;11.72
65180;BMP280;51849;47.476;8.084;2022-10-28T01:48:17;97353.66;;;11.72
65180;BMP280;51849;47.476;8.084;2022-10-28T01:51:01;97354.72;;;11.66
65180;BMP280;51849;47.476;8.084;2022-10-28T01:53:30;97350.72;;;11.65
65180;BMP280;51849;47.476;8.084;2022-10-28T01:56:01;97352.94;;;11.72
65180;BMP280;51849;47.476;8.084;2022-10-28T01:58:29;97354.72;;;11.66
65180;BMP280;51849;47.476;8.084;2022-10-28T02:00:58;97350.94;;;11.67
65180;BMP280;51849;47.476;8.084;2022-10-28T02:03:26;97353.84;;;11.69
65180;BMP280;51849;47.476;8.084;2022-10-28T02:05:54;97362.84;;;11.68
65180;BMP280;51849;47.476;8.084;2022-10-28T02:08:46;97354.72;;;11.66
65180;BMP280;51849;47.476;8.084;2022-10-28T02:11:18;97357.34;;;11.66
65180;BMP280;51849;47.476;8.084;2022-10-28T02:17:08;97363.47;;;11.63
65180;BMP280;51849;47.476;8.084;2022-10-28T02:19:42;97360.16;;;11.62
65180;BMP280;51849;47.476;8.084;2022-10-28T02:25:20;97353.94;;;11.60
65180;BMP280;51849;47.476;8.084;2022-10-28T02:30:27;97344.56;;;11.53
65180;BMP280;51849;47.476;8.084;2022-10-28T02:32:59;97345.38;;;11.45
65180;BMP280;51849;47.476;8.084;2022-10-28T02:35:39;97346.09;;;11.45
65180;BMP280;51849;47.476;8.084;2022-10-28T02:38:09;97341.59;;;11.46
65180;BMP280;51849;47.476;8.084;2022-10-28T02:40:38;97346.09;;;11.45
65180;BMP280;51849;47.476;8.084;2022-10-28T02:43:07;97329.47;;;11.43
65180;BMP280;51849;47.476;8.084;2022-10-28T02:45:40;97334.38;;;11.41
65180;BMP280;51849;47.476;8.084;2022-10-28T02:48:17;97339.78;;;11.37
65180;BMP280;51849;47.476;8.084;2022-10-28T02:50:50;97340.28;;;11.36
65180;BMP280;51849;47.476;8.084;2022-10-28T02:53:23;97339.00;;;11.31
65180;BMP280;51849;47.476;8.084;2022-10-28T02:55:53;97329.91;;;11.27
65180;BMP280;51849;47.476;8.084;2022-10-28T02:58:19;97329.91;;;11.27
65180;BMP280;51849;47.476;8.084;2022-10-28T03:00:47;97326.38;;;11.30
65180;BMP280;51849;47.476;8.084;2022-10-28T03:03:17;97329.81;;;11.36
65180;BMP280;51849;47.476;8.084;2022-10-28T03:05:43;97333.59;;;11.35
65180;BMP280;51849;47.476;8.084;2022-10-28T03:08:09;97324.84;;;11.38
65180;BMP280;51849;47.476;8.084;2022-10-28T03:10:34;97331.72;;;11.35
65180;BMP280;51849;47.476;8.084;2022-10-28T03:13:03;97325.75;;;11.35
65180;BMP280;51849;47.476;8.084;2022-10-28T03:15:28;97331.72;;;11.35
65180;BMP280;51849;47.476;8.084;2022-10-28T03:17:54;97328.09;;;11.33
65180;BMP280;51849;47.476;8.084;2022-10-28T03:20:20;97324.31;;;11.34
65180;BMP280;51849;47.476;8.084;2022-10-28T03:22:48;97324.06;;;11.32
65180;BMP280;51849;47.476;8.084;2022-10-28T03:25:14;97326.66;;;11.32
65180;BMP280;51849;47.476;8.084;2022-10-28T03:27:40;97328.09;;;11.33
65180;BMP280;51849;47.476;8.084;2022-10-28T03:30:06;97328.09;;;11.33
65180;BMP280;51849;47.476;8.084;2022-10-28T03:32:31;97334.38;;;11.41
65180;BMP280;51849;47.476;8.084;2022-10-28T03:35:00;97335.06;;;11.36
65180;BMP280;51849;47.476;8.084;2022-10-28T03:37:28;97336.22;;;11.35
65180;BMP280;51849;47.476;8.084;2022-10-28T03:39:56;97334.78;;;11.34
65180;BMP280;51849;47.476;8.084;2022-10-28T03:42:23;97330.63;;;11.42
65180;BMP280;51849;47.476;8.084;2022-10-28T03:44:52;97337.81;;;11.47
65180;BMP280;51849;47.476;8.084;2022-10-28T03:47:18;97330.41;;;11.45
65180;BMP280;51849;47.476;8.084;2022-10-28T03:49:46;97326.13;;;11.42
65180;BMP280;51849;47.476;8.084;2022-10-28T03:52:12;97326.56;;;11.41
65180;BMP280;51849;47.476;8.084;2022-10-28T03:54:40;97322.66;;;11.51
65180;BMP280;51849;47.476;8.084;2022-10-28T03:57:12;97322.84;;;11.47
65180;BMP280;51849;47.476;8.084;2022-10-28T03:59:38;97314.69;;;11.40
65180;BMP280;51849;47.476;8.084;2022-10-28T04:02:04;97319.09;;;11.48
65180;BMP280;51849;47.476;8.084;2022-10-28T04:04:29;97319.91;;;11.40
65180;BMP280;51849;47.476;8.084;2022-10-28T04:06:55;97317.94;;;11.49
65180;BMP280;51849;47.476;8.084;2022-10-28T04:09:20;97321.47;;;11.52
65180;BMP280;51849;47.476;8.084;2022-10-28T04:11:47;97322.66;;;11.51
65180;BMP280;51849;47.476;8.084;2022-10-28T04:14:18;97329.31;;;11.52
65180;BMP280;51849;47.476;8.084;2022-10-28T04:16:44;97327.44;;;11.52
65180;BMP280;51849;47.476;8.084;2022-10-28T04:19:13;97316.00;;;11.50
65180;BMP280;51849;47.476;8.084;2022-10-28T04:21:38;97326.47;;;11.64
65180;BMP280;51849;47.476;8.084;2022-10-28T04:24:07;97321.56;;;11.72
65180;BMP280;51849;47.476;8.084;2022-10-28T04:26:33;97316.16;;;11.61
65180;BMP280;51849;47.476;8.084;2022-10-28T04:29:01;97310.88;;;11.55
65180;BMP280;51849;47.476;8.084;2022-10-28T04:31:27;97319.59;;;11.52
65180;BMP280;51849;47.476;8.084;2022-10-28T04:34:03;97313.22;;;11.53
65180;BMP280;51849;47.476;8.084;2022-10-28T04:36:28;97314.66;;;11.54
65180;BMP280;51849;47.476;8.084;2022-10-28T04:38:54;97321.59;;;11.57
65180;BMP280;51849;47.476;8.084;2022-10-28T04:41:20;97323.72;;;11.59
65180;BMP280;51849;47.476;8.084;2022-10-28T04:43:48;97323.22;;;11.55
65180;BMP280;51849;47.476;8.084;2022-10-28T04:46:17;97335.47;;;11.63
65180;BMP280;51849;47.476;8.084;2022-10-28T04:48:45;97335.50;;;11.83
65180;BMP280;51849;47.476;8.084;2022-10-28T04:51:11;97332.66;;;12.01
65180;BMP280;51849;47.476;8.084;2022-10-28T04:53:36;97331.97;;;12.21
65180;BMP280;51849;47.476;8.084;2022-10-28T04:56:05;97322.13;;;12.16
65180;BMP280;51849;47.476;8.084;2022-10-28T04:58:37;97331.59;;;12.28
65180;BMP280;51849;47.476;8.084;2022-10-28T05:01:08;97340.78;;;12.23
65180;BMP280;51849;47.476;8.084;2022-10-28T05:03:35;97329.03;;;12.34
65180;BMP280;51849;47.476;8.084;2022-10-28T05:06:01;97339.22;;;12.32
65180;BMP280;51849;47.476;8.084;2022-10-28T05:08:26;97347.28;;;12.48
65180;BMP280;51849;47.476;8.084;2022-10-28T05:10:55;97336.94;;;12.59
65180;BMP280;51849;47.476;8.084;2022-10-28T05:13:23;97328.47;;;12.70
65180;BMP280;51849;47.476;8.084;2022-10-28T05:15:51;97334.78;;;12.83
65180;BMP280;51849;47.476;8.084;2022-10-28T05:18:17;97328.38;;;12.84
65180;BMP280;51849;47.476;8.084;2022-10-28T05:20:43;97336.78;;;12.88
65180;BMP280;51849;47.476;8.084;2022-10-28T05:23:13;97330.31;;;12.89
65180;BMP280;51849;47.476;8.084;2022-10-28T05:25:41;97326.28;;;12.88
65180;BMP280;51849;47.476;8.084;2022-10-28T05:28:07;97328.81;;;12.83
65180;BMP280;51849;47.476;8.084;2022-10-28T05:30:38;97326.59;;;12.96
65180;BMP280;51849;47.476;8.084;2022-10-28T05:33:04;97316.94;;;13.07
65180;BMP280;51849;47.476;8.084;2022-10-28T05:35:30;97318.06;;;13.01
65180;BMP280;51849;47.476;8.084;2022-10-28T05:37:56;97319.69;;;12.98
65180;BMP280;51849;47.476;8.084;2022-10-28T05:40:22;97328.50;;;12.95
65180;BMP280;51849;47.476;8.084;2022-10-28T05:42:51;97326.53;;;12.90
65180;BMP280;51849;47.476;8.084;2022-10-28T05:45:23;97313.03;;;12.97
65180;BMP280;51849;47.476;8.084;2022-10-28T05:47:49;97299.94;;;12.97
65180;BMP280;51849;47.476;8.084;2022-10-28T05:50:18;97296.81;;;12.93
65180;BMP280;51849;47.476;8.084;2022-10-28T05:52:54;97297.66;;;13.10
65180;BMP280;51849;47.476;8.084;2022-10-28T05:55:26;97296.47;;;13.11
65180;BMP280;51849;47.476;8.084;2022-10-28T05:57:55;97298.84;;;13.09
65180;BMP280;51849;47.476;8.084;2022-10-28T06:00:23;97279.13;;;13.14
65180;BMP280;51849;47.476;8.084;2022-10-28T06:03:07;97322.03;;;13.22
65180;BMP280;51849;47.476;8.084;2022-10-28T06:05:44;97332.16;;;13.34
65180;BMP280;51849;47.476;8.084;2022-10-28T06:08:12;97307.34;;;13.30
65180;BMP280;51849;47.476;8.084;2022-10-28T06:10:39;97317.22;;;13.83
65180;BMP280;51849;47.476;8.084;2022-10-28T06:13:04;97324.28;;;13.66
65180;BMP280;51849;47.476;8.084;2022-10-28T06:15:50;97332.28;;;13.51
65180;BMP280;51849;47.476;8.084;2022-10-28T06:18:25;97327.75;;;13.51
65180;BMP280;51849;47.476;8.084;2022-10-28T06:20:55;97318.88;;;13.43
65180;BMP280;51849;47.476;8.084;2022-10-28T06:23:22;97319.63;;;13.49
65180;BMP280;51849;47.476;8.084;2022-10-28T06:25:47;97318.88;;;13.43
65180;BMP280;51849;47.476;8.084;2022-10-28T06:28:19;97311.94;;;13.40
65180;BMP280;51849;47.476;8.084;2022-10-28T06:31:08;97312.09;;;13.31
65180;BMP280;51849;47.476;8.084;2022-10-28T06:33:39;97320.69;;;13.32
65180;BMP280;51849;47.476;8.084;2022-10-28T06:36:08;97315.66;;;13.28
65180;BMP280;51849;47.476;8.084;2022-10-28T06:38:33;97312.31;;;13.28
65180;BMP280;51849;47.476;8.084;2022-10-28T06:41:14;97324.94;;;13.29
65180;BMP280;51849;47.476;8.084;2022-10-28T06:43:40;97329.03;;;13.30
65180;BMP280;51849;47.476;8.084;2022-10-28T06:46:06;97328.53;;;13.26
65180;BMP280;51849;47.476;8.084;2022-10-28T06:48:31;97336.63;;;13.28
65180;BMP280;51849;47.476;8.084;2022-10-28T06:50:57;97334.22;;;13.25
65180;BMP280;51849;47.476;8.084;2022-10-28T06:53:35;97339.44;;;13.25
65180;BMP280;51849;47.476;8.084;2022-10-28T06:56:01;97342.31;;;13.21
65180;BMP280;51849;47.476;8.084;2022-10-28T06:58:29;97348.19;;;13.42
65180;BMP280;51849;47.476;8.084;2022-10-28T07:00:54;97344.41;;;13.48
65180;BMP280;51849;47.476;8.084;2022-10-28T07:03:20;97342.53;;;13.54
65180;BMP280;51849;47.476;8.084;2022-10-28T07:05:52;97358.22;;;13.49
65180;BMP280;51849;47.476;8.084;2022-10-28T07:08:19;97361.31;;;13.47
65180;BMP280;51849;47.476;8.084;2022-10-28T07:10:52;97356.56;;;13.46
65180;BMP280;51849;47.476;8.084;2022-10-28T07:13:24;97358.03;;;13.52
65180;BMP280;51849;47.476;8.084;2022-10-28T07:15:55;97346.59;;;13.55
65180;BMP280;51849;47.476;8.084;2022-10-28T07:18:24;97359.44;;;13.53
65180;BMP280;51849;47.476;8.084;2022-10-28T07:20:50;97364.94;;;13.55
65180;BMP280;51849;47.476;8.084;2022-10-28T07:23:16;97364.03;;;13.59
65180;BMP280;51849;47.476;8.084;2022-10-28T07:25:42;97361.63;;;13.61
65180;BMP280;51849;47.476;8.084;2022-10-28T07:28:08;97365.00;;;13.67
65180;BMP280;51849;47.476;8.084;2022-10-28T07:30:34;97361.22;;;13.68
65180;BMP280;51849;47.476;8.084;2022-10-28T07:33:20;97371.28;;;13.75
65180;BMP280;51849;47.476;8.084;2022-10-28T07:35:46;97365.34;;;13.80
65180;BMP280;51849;47.476;8.084;2022-10-28T07:38:17;97374.47;;;13.90
65180;BMP280;51849;47.476;8.084;2022-10-28T07:40:43;97388.44;;;14.12
65180;BMP280;51849;47.476;8.084;2022-10-28T07:43:11;97391.03;;;14.07
65180;BMP280;51849;47.476;8.084;2022-10-28T07:45:37;97384.81;;;14.10
65180;BMP280;51849;47.476;8.084;2022-10-28T07:48:06;97391.53;;;14.11
65180;BMP280;51849;47.476;8.084;2022-10-28T07:50:32;97387.28;;;14.19
65180;BMP280;51849;47.476;8.084;2022-10-28T07:52:58;97391.38;;;14.25
65180;BMP280;51849;47.476;8.084;2022-10-28T07:55:24;97388.25;;;14.27
65180;BMP280;51849;47.476;8.084;2022-10-28T07:57:50;97389.47;;;14.26
65180;BMP280;51849;47.476;8.084;2022-10-28T08:00:16;97394.22;;;14.27
65180;BMP280;51849;47.476;8.084;2022-10-28T08:02:42;97389.69;;;14.28
65180;BMP280;51849;47.476;8.084;2022-10-28T08:05:07;97403.31;;;14.32
65180;BMP280;51849;47.476;8.084;2022-10-28T08:07:33;97404.28;;;14.34
65180;BMP280;51849;47.476;8.084;2022-10-28T08:09:59;97403.13;;;14.41
65180;BMP280;51849;47.476;8.084;2022-10-28T08:12:24;97407.19;;;14.47
65180;BMP280;51849;47.476;8.084;2022-10-28T08:14:52;97416.28;;;14.52
65180;BMP280;51849;47.476;8.084;2022-10-28T08:17:18;97413.22;;;14.59
65180;BMP280;51849;47.476;8.084;2022-10-28T08:19:47;97414.69;;;14.71
65180;BMP280;51849;47.476;8.084;2022-10-28T08:22:21;97417.34;;;14.76
65180;BMP280;51849;47.476;8.084;2022-10-28T08:24:49;97410.91;;;14.83
65180;BMP280;51849;47.476;8.084;2022-10-28T08:27:17;97419.97;;;14.93
65180;BMP280;51849;47.476;8.084;2022-10-28T08:29:50;97412.13;;;14.98
65180;BMP280;51849;47.476;8.084;2022-10-28T08:32:21;97407.34;;;15.02
65180;BMP280;51849;47.476;8.084;2022-10-28T08:34:47;97409.50;;;15.15
65180;BMP280;51849;47.476;8.084;2022-10-28T08:37:12;97414.53;;;15.24
65180;BMP280;51849;47.476;8.084;2022-10-28T08:40:01;97409.78;;;15.28
65180;BMP280;51849;47.476;8.084;2022-10-28T08:42:46;97406.66;;;15.46
65180;BMP280;51849;47.476;8.084;2022-10-28T08:45:23;97405.69;;;15.82
65180;BMP280;51849;47.476;8.084;2022-10-28T08:50:25;97415.00;;;15.94
65180;BMP280;51849;47.476;8.084;2022-10-28T08:55:39;97414.75;;;15.92
65180;BMP280;51849;47.476;8.084;2022-10-28T08:58:22;97404.47;;;15.89
65180;BMP280;51849;47.476;8.084;2022-10-28T09:00:58;97407.31;;;15.91
65180;BMP280;51849;47.476;8.084;2022-10-28T09:03:46;97407.09;;;15.94
65180;BMP280;51849;47.476;8.084;2022-10-28T09:06:14;97408.28;;;15.99
65180;BMP280;51849;47.476;8.084;2022-10-28T09:08:47;97401.84;;;15.94
65180;BMP280;51849;47.476;8.084;2022-10-28T09:11:37;97417.84;;;15.96
65180;BMP280;51849;47.476;8.084;2022-10-28T09:14:13;97412.59;;;15.96
65180;BMP280;51849;47.476;8.084;2022-10-28T09:17:13;97410.16;;;16.04
65180;BMP280;51849;47.476;8.084;2022-10-28T09:31:52;97399.28;;;16.40
65180;BMP280;51849;47.476;8.084;2022-10-28T09:34:24;97402.06;;;16.53
65180;BMP280;51849;47.476;8.084;2022-10-28T09:36:57;97402.75;;;16.59
65180;BMP280;51849;47.476;8.084;2022-10-28T09:39:36;97405.09;;;16.69
65180;BMP280;51849;47.476;8.084;2022-10-28T09:42:05;97406.00;;;16.82
65180;BMP280;51849;47.476;8.084;2022-10-28T09:44:56;97412.16;;;16.90
65180;BMP280;51849;47.476;8.084;2022-10-28T09:47:40;97405.50;;;16.84
65180;BMP280;51849;47.476;8.084;2022-10-28T09:50:15;97412.69;;;16.83
65180;BMP280;51849;47.476;8.084;2022-10-28T09:55:50;97418.34;;;16.98
65180;BMP280;51849;47.476;8.084;2022-10-28T09:58:26;97398.88;;;17.07
65180;BMP280;51849;47.476;8.084;2022-10-28T10:01:01;97399.63;;;17.07
65180;BMP280;51849;47.476;8.084;2022-10-28T10:03:27;97399.53;;;17.13
65180;BMP280;51849;47.476;8.084;2022-10-28T10:05:55;97404.28;;;17.20
65180;BMP280;51849;47.476;8.084;2022-10-28T10:08:24;97399.66;;;17.31
65180;BMP280;51849;47.476;8.084;2022-10-28T10:11:02;97408.97;;;17.32
65180;BMP280;51849;47.476;8.084;2022-10-28T10:13:41;97410.13;;;17.37
65180;BMP280;51849;47.476;8.084;2022-10-28T10:16:40;97404.66;;;17.35
65180;BMP280;51849;47.476;8.084;2022-10-28T10:19:08;97405.88;;;17.34
65180;BMP280;51849;47.476;8.084;2022-10-28T10:21:58;97400.81;;;17.36
65180;BMP280;51849;47.476;8.084;2022-10-28T10:24:35;97388.06;;;17.40
65180;BMP280;51849;47.476;8.084;2022-10-28T10:29:36;97377.06;;;17.84
65180;BMP280;51849;47.476;8.084;2022-10-28T10:34:32;97377.38;;;18.17
65180;BMP280;51849;47.476;8.084;2022-10-28T10:37:05;97377.84;;;18.21
65180;BMP280;51849;47.476;8.084;2022-10-28T10:39:40;97376.34;;;18.26
65180;BMP280;51849;47.476;8.084;2022-10-28T10:42:21;97375.56;;;18.31
65180;BMP280;51849;47.476;8.084;2022-10-28T10:44:58;97369.38;;;18.41
65180;BMP280;51849;47.476;8.084;2022-10-28T10:47:24;97366.75;;;18.60
65180;BMP280;51849;47.476;8.084;2022-10-28T10:49:50;97362.50;;;18.70
65180;BMP280;51849;47.476;8.084;2022-10-28T10:52:19;97363.31;;;18.78
65180;BMP280;51849;47.476;8.084;2022-10-28T10:55:24;97363.94;;;18.71
65180;BMP280;51849;47.476;8.084;2022-10-28T10:57:52;97364.13;;;18.73
65180;BMP280;51849;47.476;8.084;2022-10-28T11:00:19;97361.50;;;18.73
65180;BMP280;51849;47.476;8.084;2022-10-28T11:02:48;97360.31;;;18.56
65180;BMP280;51849;47.476;8.084;2022-10-28T11:05:24;97353.75;;;18.62
65180;BMP280;51849;47.476;8.084;2022-10-28T11:07:50;97342.94;;;18.60
65180;BMP280;51849;47.476;8.084;2022-10-28T11:10:34;97348.81;;;18.53
65180;BMP280;51849;47.476;8.084;2022-10-28T11:13:23;97339.16;;;18.56
65180;BMP280;51849;47.476;8.084;2022-10-28T11:16:01;97345.66;;;18.55
65180;BMP280;51849;47.476;8.084;2022-10-28T11:18:47;97345.53;;;18.47
65180;BMP280;51849;47.476;8.084;2022-10-28T11:21:37;97339.97;;;18.51
65180;BMP280;51849;47.476;8.084;2022-10-28T11:27:05;97342.00;;;18.45
65180;BMP280;51849;47.476;8.084;2022-10-28T11:29:36;97335.75;;;18.42
65180;BMP280;51849;47.476;8.084;2022-10-28T11:57:21;97316.41;;;19.10
65180;BMP280;51849;47.476;8.084;2022-10-28T12:06:24;97299.41;;;19.32
65180;BMP280;51849;47.476;8.084;2022-10-28T12:08:22;97297.09;;;19.41
65180;BMP280;51849;47.476;8.084;2022-10-28T12:13:39;97284.88;;;19.51
65180;BMP280;51849;47.476;8.084;2022-10-28T12:24:52;97282.19;;;19.77
65180;BMP280;51849;47.476;8.084;2022-10-28T12:27:40;97277.16;;;19.74
65180;BMP280;51849;47.476;8.084;2022-10-28T12:30:19;97274.72;;;19.76
65180;BMP280;51849;47.476;8.084;2022-10-28T12:32:48;97278.91;;;19.71
65180;BMP280;51849;47.476;8.084;2022-10-28T12:35:40;97277.28;;;19.81
65180;BMP280;51849;47.476;8.084;2022-10-28T12:38:36;97272.00;;;19.81
65180;BMP280;51849;47.476;8.084;2022-10-28T12:41:24;97264.75;;;19.82
65180;BMP280;51849;47.476;8.084;2022-10-28T12:43:58;97271.03;;;19.92
65180;BMP280;51849;47.476;8.084;2022-10-28T12:51:52;97264.00;;;20.35
65180;BMP280;51849;47.476;8.084;2022-10-28T12:54:37;97264.59;;;20.41
65180;BMP280;51849;47.476;8.084;2022-10-28T12:57:13;97268.38;;;20.53
65180;BMP280;51849;47.476;8.084;2022-10-28T13:00:16;97270.03;;;20.56
65180;BMP280;51849;47.476;8.084;2022-10-28T13:03:09;97259.88;;;20.76
65180;BMP280;51849;47.476;8.084;2022-10-28T13:05:44;97254.56;;;20.76
65180;BMP280;51849;47.476;8.084;2022-10-28T13:08:51;97261.81;;;21.03
65180;BMP280;51849;47.476;8.084;2022-10-28T13:23:22;97259.94;;;21.19
65180;BMP280;51849;47.476;8.084;2022-10-28T13:26:06;97252.66;;;21.12
65180;BMP280;51849;47.476;8.084;2022-10-28T13:28:40;97245.75;;;21.09
65180;BMP280;51849;47.476;8.084;2022-10-28T13:31:10;97249.84;;;21.10
65180;BMP280;51849;47.476;8.084;2022-10-28T13:33:37;97241.22;;;21.17
65180;BMP280;51849;47.476;8.084;2022-10-28T13:36:32;97244.44;;;21.38
65180;BMP280;51849;47.476;8.084;2022-10-28T13:39:44;97251.03;;;21.44
65180;BMP280;51849;47.476;8.084;2022-10-28T13:52:42;97251.56;;;21.50
65180;BMP280;51849;47.476;8.084;2022-10-28T14:00:39;97250.88;;;21.50
65180;BMP280;51849;47.476;8.084;2022-10-28T14:03:24;97247.69;;;21.51
65180;BMP280;51849;47.476;8.084;2022-10-28T14:06:01;97250.47;;;21.46
65180;BMP280;51849;47.476;8.084;2022-10-28T14:08:37;97245.03;;;21.51
65180;BMP280;51849;47.476;8.084;2022-10-28T14:11:10;97248.00;;;21.48
65180;BMP280;51849;47.476;8.084;2022-10-28T14:13:42;97251.91;;;21.47
65180;BMP280;51849;47.476;8.084;2022-10-28T14:16:22;97254.56;;;21.47
65180;BMP280;51849;47.476;8.084;2022-10-28T14:24:35;97267.94;;;21.26
65180;BMP280;51849;47.476;8.084;2022-10-28T14:29:47;97255.38;;;21.27
65180;BMP280;51849;47.476;8.084;2022-10-28T14:38:04;97265.75;;;21.10
65180;BMP280;51849;47.476;8.084;2022-10-28T14:45:59;97247.47;;;20.99
65180;BMP280;51849;47.476;8.084;2022-10-28T14:48:57;97248.50;;;20.96
65180;BMP280;51849;47.476;8.084;2022-10-28T14:51:35;97249.56;;;20.93
65180;BMP280;51849;47.476;8.084;2022-10-28T14:54:16;97243.50;;;20.85
65180;BMP280;51849;47.476;8.084;2022-10-28T14:56:47;97232.28;;;20.71
65180;BMP280;51849;47.476;8.084;2022-10-28T14:59:26;97235.06;;;20.65
65180;BMP280;51849;47.476;8.084;2022-10-28T15:04:27;97226.31;;;20.50
65180;BMP280;51849;47.476;8.084;2022-10-28T15:06:53;97226.63;;;20.46
65180;BMP280;51849;47.476;8.084;2022-10-28T15:09:22;97228.34;;;20.36
65180;BMP280;51849;47.476;8.084;2022-10-28T15:14:38;97234.94;;;20.22
65180;BMP280;51849;47.476;8.084;2022-10-28T15:17:28;97235.31;;;20.26
65180;BMP280;51849;47.476;8.084;2022-10-28T15:22:49;97226.41;;;20.16
65180;BMP280;51849;47.476;8.084;2022-10-28T15:25:21;97223.88;;;20.11
65180;BMP280;51849;47.476;8.084;2022-10-28T15:27:50;97235.16;;;20.11
65180;BMP280;51849;47.476;8.084;2022-10-28T15:30:17;97230.53;;;20.04
65180;BMP280;51849;47.476;8.084;2022-10-28T15:32:48;97230.13;;;20.00
65180;BMP280;51849;47.476;8.084;2022-10-28T15:40:53;97229.38;;;19.92
65180;BMP280;51849;47.476;8.084;2022-10-28T15:43:37;97229.38;;;19.92
65180;BMP280;51849;47.476;8.084;2022-10-28T15:46:13;97232.28;;;19.81
65180;BMP280;51849;47.476;8.084;2022-10-28T15:48:42;97228.81;;;19.73
65180;BMP280;51849;47.476;8.084;2022-10-28T15:53:42;97235.84;;;19.37
65180;BMP280;51849;47.476;8.084;2022-10-28T15:56:17;97243.56;;;19.22
65180;BMP280;51849;47.476;8.084;2022-10-28T16:01:38;97250.47;;;18.99
65180;BMP280;51849;47.476;8.084;2022-10-28T16:04:05;97251.09;;;18.92
65180;BMP280;51849;47.476;8.084;2022-10-28T16:06:37;97253.00;;;18.79
65180;BMP280;51849;47.476;8.084;2022-10-28T16:14:55;97248.78;;;18.44
65180;BMP280;51849;47.476;8.084;2022-10-28T16:17:27;97250.38;;;18.34
65180;BMP280;51849;47.476;8.084;2022-10-28T16:22:27;97260.41;;;18.22
65180;BMP280;51849;47.476;8.084;2022-10-28T16:24:53;97258.63;;;18.12
65180;BMP280;51849;47.476;8.084;2022-10-28T16:27:23;97264.00;;;18.06
65180;BMP280;51849;47.476;8.084;2022-10-28T16:29:50;97265.44;;;17.89
65180;BMP280;51849;47.476;8.084;2022-10-28T16:32:17;97258.34;;;17.78
65180;BMP280;51849;47.476;8.084;2022-10-28T16:34:47;97257.22;;;17.74
65180;BMP280;51849;47.476;8.084;2022-10-28T16:37:19;97259.63;;;17.72
65180;BMP280;51849;47.476;8.084;2022-10-28T16:39:48;97270.63;;;17.76
65180;BMP280;51849;47.476;8.084;2022-10-28T16:42:17;97267.03;;;17.55
65180;BMP280;51849;47.476;8.084;2022-10-28T16:44:47;97263.88;;;17.56
65180;BMP280;51849;47.476;8.084;2022-10-28T16:47:42;97270.22;;;17.48
65180;BMP280;51849;47.476;8.084;2022-10-28T16:50:11;97267.59;;;17.48
65180;BMP280;51849;47.476;8.084;2022-10-28T16:52:38;97265.28;;;17.39
65180;BMP280;51849;47.476;8.084;2022-10-28T16:55:08;97267.50;;;17.35
65180;BMP280;51849;47.476;8.084;2022-10-28T16:57:38;97270.66;;;17.28
65180;BMP280;51849;47.476;8.084;2022-10-28T17:00:14;97265.84;;;17.32
65180;BMP280;51849;47.476;8.084;2022-10-28T17:02:40;97278.13;;;17.29
65180;BMP280;51849;47.476;8.084;2022-10-28T17:05:14;97274.22;;;17.12
65180;BMP280;51849;47.476;8.084;2022-10-28T17:07:52;97286.25;;;17.07
65180;BMP280;51849;47.476;8.084;2022-10-28T17:10:23;97299.91;;;17.06
65180;BMP280;51849;47.476;8.084;2022-10-28T17:12:52;97300.72;;;16.95
65180;BMP280;51849;47.476;8.084;2022-10-28T17:15:18;97294.94;;;16.97
65180;BMP280;51849;47.476;8.084;2022-10-28T17:17:50;97303.41;;;16.90
65180;BMP280;51849;47.476;8.084;2022-10-28T17:20:17;97301.03;;;16.86
65180;BMP280;51849;47.476;8.084;2022-10-28T17:22:44;97310.50;;;17.00
65180;BMP280;51849;47.476;8.084;2022-10-28T17:25:10;97300.78;;;16.90
65180;BMP280;51849;47.476;8.084;2022-10-28T17:27:36;97312.81;;;16.80
65180;BMP280;51849;47.476;8.084;2022-10-28T17:30:02;97309.50;;;16.74
65180;BMP280;51849;47.476;8.084;2022-10-28T17:32:29;97311.06;;;16.58